5A6 weather

Winona–Montgomery County Airport
Winona, Mississippi, United States

Public forecast

Using degrees Fahrenheit for public forecast. Weather courtesy of forecast.io.

METAR (pilot weather report)

Retrieved UTC (0 seconds ago):

TAF (pilot weather forecast)

Closest forecast is Greenwood–Leflore Airport, 17.9 nm (33.1 km) W. Retrieved 2019/08/25 18:48 UTC (2 hours ago):

TAF KGWO 251746Z 2518/2618 12005KT P6SM SHRA VCTS BKN015CB OVC050 FM251930 12008KT P6SM SHRA FEW020 BKN050 FM260700 16004KT P6SM VCSH BKN008 OVC025 FM261500 18005KT P6SM FEW008 BKN025